Time;durP1;ratioP1;P1;durP2;ratioP2;P2;SDS_P1;SDS_P2;PMS_P1;PMS_P2;Temp;Humidity;BMP_temperature;BMP_pressure;BME280_temperature;BME280_humidity;BME280_pressure;Samples;Min_cycle;Max_cycle;Signal;HPM_P1;HPM_P2
2023/04/13 00:00:43;;;;;;;9.68;3.92;;;6.20;99.90;;;;;;5031680;28;20025;-85
2023/04/13 00:03:11;;;;;;;;;;;6.20;99.90;;;;;;5032151;28;20028;-84
2023/04/13 00:05:38;;;;;;;5.47;1.90;;;6.00;99.90;;;;;;5032803;28;19905;-85
2023/04/13 00:08:04;;;;;;;7.93;2.22;;;6.10;99.90;;;;;;5031734;28;20034;-84
2023/04/13 00:10:34;;;;;;;9.68;4.35;;;6.20;99.90;;;;;;5031720;28;20083;-84
2023/04/13 00:13:04;;;;;;;10.43;4.22;;;6.20;99.90;;;;;;5031231;28;20058;-85
2023/04/13 00:15:30;;;;;;;9.88;3.72;;;6.30;99.90;;;;;;5030946;28;20029;-84
2023/04/13 00:17:57;;;;;;;14.43;3.97;;;6.30;99.90;;;;;;5030652;28;20029;-83
2023/04/13 00:20:23;;;;;;;14.35;2.08;;;6.30;99.90;;;;;;5030412;28;20478;-83
2023/04/13 00:22:48;;;;;;;;;;;6.30;99.90;;;;;;5031144;28;20025;-84
2023/04/13 00:25:15;;;;;;;4.88;1.77;;;6.30;99.90;;;;;;5029724;28;19909;-84
2023/04/13 00:27:42;;;;;;;6.30;1.90;;;6.40;99.90;;;;;;5030286;28;20036;-84
2023/04/13 00:30:11;;;;;;;5.70;2.25;;;6.40;99.90;;;;;;5031159;28;20032;-84
2023/04/13 00:32:38;;;;;;;5.55;1.75;;;6.40;99.90;;;;;;5031184;28;20065;-84
2023/04/13 00:35:04;;;;;;;7.03;1.95;;;6.30;99.90;;;;;;5030852;28;20049;-84
2023/04/13 00:37:31;;;;;;;;;;;6.30;99.90;;;;;;5030938;28;20034;-82
2023/04/13 00:39:58;;;;;;;5.10;1.90;;;6.30;99.90;;;;;;5030065;28;19905;-83
2023/04/13 00:42:24;;;;;;;4.53;1.80;;;6.30;99.90;;;;;;5030878;28;20823;-84
2023/04/13 00:44:51;;;;;;;2.30;1.17;;;6.40;99.90;;;;;;5031483;28;20112;-85
2023/04/13 00:47:25;;;;;;;4.80;1.92;;;6.40;99.90;;;;;;5031510;28;20029;-83
2023/04/13 00:49:52;;;;;;;8.45;3.25;;;6.30;99.90;;;;;;5028609;28;20029;-82
2023/04/13 00:52:20;;;;;;;11.57;2.95;;;6.40;99.90;;;;;;5029296;28;20105;-83
2023/04/13 00:54:49;;;;;;;4.75;2.30;;;6.30;99.90;;;;;;5029572;28;20493;-82
2023/04/13 00:57:22;;;;;;;5.07;2.03;;;6.30;99.90;;;;;;5028160;28;20022;-82
2023/04/13 00:59:49;;;;;;;7.60;2.60;;;6.30;99.90;;;;;;5028112;28;20064;-83
2023/04/13 01:02:23;;;;;;;4.13;1.65;;;6.30;99.90;;;;;;5028723;28;20067;-83
2023/04/13 01:04:50;;;;;;;6.10;1.83;;;6.50;99.90;;;;;;5030460;28;20102;-83
2023/04/13 01:07:23;;;;;;;3.50;1.23;;;6.50;99.90;;;;;;5030519;28;20112;-84
2023/04/13 01:10:01;;;;;;;4.85;1.77;;;6.60;99.90;;;;;;5030440;28;20033;-84
2023/04/13 01:12:38;;;;;;;6.78;1.30;;;6.60;99.90;;;;;;5030239;28;20033;-83
2023/04/13 01:15:08;;;;;;;6.32;1.40;;;6.60;99.90;;;;;;5030555;28;20033;-84
2023/04/13 01:17:36;;;;;;;4.35;1.15;;;6.70;99.90;;;;;;5031010;28;20029;-84
2023/04/13 01:20:12;;;;;;;4.38;0.90;;;6.70;99.90;;;;;;5033588;28;20036;-84
2023/04/13 01:22:41;;;;;;;2.90;1.30;;;6.80;99.90;;;;;;5034017;28;20579;-83
2023/04/13 01:25:29;;;;;;;3.55;1.17;;;6.80;99.90;;;;;;5032554;28;20502;-85
2023/04/13 01:28:07;;;;;;;4.22;1.00;;;6.80;99.90;;;;;;5032621;28;20029;-84
2023/04/13 01:30:35;;;;;;;5.20;1.13;;;6.80;99.90;;;;;;5034150;28;20120;-84
2023/04/13 01:33:02;;;;;;;4.55;1.70;;;6.90;99.90;;;;;;5032565;28;20605;-83
2023/04/13 01:35:29;;;;;;;6.32;1.83;;;6.90;99.90;;;;;;5033199;28;20029;-84
2023/04/13 01:37:58;;;;;;;5.40;1.65;;;6.80;99.90;;;;;;5033728;28;20032;-84
2023/04/13 01:40:27;;;;;;;5.53;2.30;;;6.80;99.90;;;;;;5033886;28;20280;-84
2023/04/13 01:42:53;;;;;;;7.35;3.00;;;6.80;99.90;;;;;;5033401;28;20022;-83
2023/04/13 01:45:18;;;;;;;;;;;6.90;99.90;;;;;;5031784;28;20040;-83
2023/04/13 01:48:13;;;;;;;9.10;2.80;;;6.90;99.90;;;;;;5033068;28;20301;-82
2023/04/13 01:50:41;;;;;;;6.10;2.97;;;7.00;99.90;;;;;;5034455;28;20037;-85
2023/04/13 01:53:18;;;;;;;5.97;2.72;;;7.00;99.90;;;;;;5033928;28;20040;-86
2023/04/13 01:55:44;;;;;;;4.35;2.25;;;7.10;99.90;;;;;;5034871;28;20021;-85
2023/04/13 01:58:12;;;;;;;4.28;2.53;;;7.10;99.90;;;;;;5034253;28;20120;-85
2023/04/13 02:00:41;;;;;;;8.05;2.88;;;7.20;99.90;;;;;;5034400;28;20032;-85
2023/04/13 02:03:09;;;;;;;6.70;2.58;;;7.20;99.90;;;;;;5035177;28;20113;-85
2023/04/13 02:05:39;;;;;;;4.97;2.00;;;7.20;99.90;;;;;;5033276;28;20021;-84
2023/04/13 02:08:06;;;;;;;3.88;1.90;;;7.20;99.90;;;;;;5033318;28;20045;-83
2023/04/13 02:10:33;;;;;;;4.00;1.23;;;7.30;99.90;;;;;;5030927;28;20048;-82
2023/04/13 02:13:08;;;;;;;5.57;1.75;;;7.30;99.90;;;;;;5031103;28;20058;-82
2023/04/13 02:15:36;;;;;;;4.70;1.38;;;7.40;99.90;;;;;;5031620;28;20034;-82
2023/04/13 02:18:03;;;;;;;9.73;2.10;;;7.40;99.90;;;;;;5032666;28;20025;-83
2023/04/13 02:20:32;;;;;;;9.07;3.03;;;7.40;99.90;;;;;;5032488;28;20048;-83
2023/04/13 02:22:59;;;;;;;6.13;2.45;;;7.40;99.90;;;;;;5032215;28;20084;-82
2023/04/13 02:25:26;;;;;;;7.50;2.90;;;7.40;99.90;;;;;;5032562;28;20037;-83
2023/04/13 02:27:52;;;;;;;9.65;3.45;;;7.40;99.90;;;;;;5033546;28;20108;-83
2023/04/13 02:30:18;;;;;;;;;;;7.40;99.90;;;;;;5031982;28;20561;-83
2023/04/13 02:32:49;;;;;;;5.82;2.15;;;7.50;99.90;;;;;;5032618;28;19918;-83
2023/04/13 02:35:14;;;;;;;7.22;3.05;;;7.50;99.90;;;;;;5032536;28;20025;-83
2023/04/13 02:37:40;;;;;;;;;;;7.50;99.90;;;;;;5033776;28;20120;-83
2023/04/13 02:40:08;;;;;;;7.60;1.52;;;7.50;99.90;;;;;;5032116;28;19912;-83
2023/04/13 02:42:35;;;;;;;3.15;1.40;;;7.60;99.90;;;;;;5031866;28;20040;-83
2023/04/13 02:45:00;;;;;;;4.38;1.08;;;7.60;99.90;;;;;;5033107;28;20030;-83
2023/04/13 02:47:26;;;;;;;;;;;7.70;99.90;;;;;;5032574;28;20084;-83
2023/04/13 02:49:51;;;;;;;3.80;1.13;;;7.80;99.90;;;;;;5032196;28;19947;-83
2023/04/13 02:52:17;;;;;;;;;;;7.90;99.90;;;;;;5032250;28;20072;-84
2023/04/13 02:54:46;;;;;;;4.22;1.00;;;8.00;99.90;;;;;;5031598;28;19954;-83
2023/04/13 02:57:12;;;;;;;2.88;0.85;;;8.10;99.90;;;;;;5031940;28;20033;-83
2023/04/13 02:59:39;;;;;;;;;;;8.20;99.90;;;;;;5032167;28;20124;-83
2023/04/13 03:02:05;;;;;;;2.95;1.02;;;8.10;99.90;;;;;;5031782;28;20428;-83
2023/04/13 03:04:31;;;;;;;1.83;0.70;;;8.10;99.90;;;;;;5032159;28;20437;-85
2023/04/13 03:06:57;;;;;;;;;;;8.10;99.90;;;;;;5032069;28;20032;-83
2023/04/13 03:09:24;;;;;;;3.42;1.85;;;8.10;99.90;;;;;;5031998;28;20305;-84
2023/04/13 03:11:50;;;;;;;6.25;1.70;;;8.10;99.90;;;;;;5032924;28;20025;-84
2023/04/13 03:14:21;;;;;;;3.47;1.20;;;8.10;99.90;;;;;;5031485;28;20053;-83
2023/04/13 03:16:48;;;;;;;3.17;1.52;;;8.10;99.90;;;;;;5031704;28;20030;-84
2023/04/13 03:19:15;;;;;;;6.50;1.55;;;8.10;99.90;;;;;;5032330;28;20031;-86
2023/04/13 03:21:43;;;;;;;2.72;1.05;;;8.10;99.90;;;;;;5033816;28;20030;-84
2023/04/13 03:24:10;;;;;;;3.05;1.40;;;8.10;99.90;;;;;;5032479;28;20030;-85
2023/04/13 03:26:36;;;;;;;6.82;2.45;;;8.10;99.90;;;;;;5032038;28;20025;-85
2023/04/13 03:29:03;;;;;;;7.18;2.53;;;8.10;99.90;;;;;;5032132;28;20029;-85
2023/04/13 03:31:31;;;;;;;9.23;3.97;;;8.00;99.90;;;;;;5032005;28;20022;-84
2023/04/13 03:33:57;;;;;;;7.15;3.78;;;8.00;99.90;;;;;;5031646;28;20124;-83
2023/04/13 03:36:23;;;;;;;7.82;3.65;;;8.00;99.90;;;;;;5032208;28;20034;-85
2023/04/13 03:38:49;;;;;;;7.28;4.00;;;8.00;99.90;;;;;;5031296;28;20029;-85
2023/04/13 03:41:15;;;;;;;;;;;7.90;99.90;;;;;;5030516;28;20021;-85
2023/04/13 03:43:41;;;;;;;13.75;6.25;;;7.90;99.90;;;;;;5029044;28;19954;-84
2023/04/13 03:46:06;;;;;;;14.93;7.78;;;7.90;99.90;;;;;;5030907;28;20022;-84
2023/04/13 03:48:32;;;;;;;;;;;8.00;99.90;;;;;;5033185;28;20037;-84
2023/04/13 03:50:58;;;;;;;9.20;4.43;;;8.00;99.90;;;;;;5031456;28;19905;-84
2023/04/13 03:53:24;;;;;;;;;;;8.00;99.90;;;;;;5033123;28;20033;-85
2023/04/13 03:55:50;;;;;;;10.55;2.47;;;8.00;99.90;;;;;;5029823;28;20301;-84
2023/04/13 03:58:16;;;;;;;;;;;8.10;99.90;;;;;;5032205;28;20029;-83
2023/04/13 04:00:44;;;;;;;6.28;1.85;;;8.10;99.90;;;;;;5031375;28;19909;-83
2023/04/13 04:03:09;;;;;;;4.20;1.35;;;8.20;99.90;;;;;;5031168;28;20033;-84
2023/04/13 04:05:37;;;;;;;;;;;8.20;99.90;;;;;;5031788;28;20032;-84
2023/04/13 04:08:03;;;;;;;5.65;1.67;;;8.30;99.90;;;;;;5031506;28;19913;-84
2023/04/13 04:10:28;;;;;;;;;;;8.30;99.90;;;;;;5031403;28;20068;-83
2023/04/13 04:12:55;;;;;;;5.03;1.48;;;8.30;99.90;;;;;;5030879;28;19971;-84
2023/04/13 04:15:21;;;;;;;4.40;1.30;;;8.30;99.90;;;;;;5030999;28;20037;-84
2023/04/13 04:17:46;;;;;;;;;;;8.30;99.90;;;;;;5032077;28;20029;-84
2023/04/13 04:20:13;;;;;;;6.32;1.00;;;8.30;99.90;;;;;;5031150;28;19955;-84
2023/04/13 04:22:40;;;;;;;8.25;1.23;;;8.40;99.90;;;;;;5032551;28;20028;-84
2023/04/13 04:25:07;;;;;;;3.03;0.85;;;8.50;99.90;;;;;;5031168;28;20030;-84
2023/04/13 04:27:37;;;;;;;3.58;1.15;;;8.50;99.90;;;;;;5030918;28;20048;-85
2023/04/13 04:30:04;;;;;;;2.85;1.15;;;8.60;99.90;;;;;;5030474;28;20090;-84
2023/04/13 04:32:32;;;;;;;6.10;0.90;;;8.60;99.90;;;;;;5030917;28;20032;-84
2023/04/13 04:34:58;;;;;;;5.93;1.25;;;8.70;98.90;;;;;;5031049;28;20021;-85
2023/04/13 04:37:24;;;;;;;;;;;8.80;99.70;;;;;;5032963;28;20159;-85
2023/04/13 04:39:52;;;;;;;4.55;1.40;;;8.70;99.90;;;;;;5030213;28;19912;-83
2023/04/13 04:42:18;;;;;;;5.20;1.20;;;8.80;97.90;;;;;;5028621;28;20034;-83
2023/04/13 04:44:46;;;;;;;;;;;8.80;98.10;;;;;;5030918;28;20164;-86
2023/04/13 04:47:18;;;;;;;3.88;1.30;;;8.80;97.10;;;;;;5031183;28;19913;-86
2023/04/13 04:49:44;;;;;;;4.28;1.58;;;8.90;97.10;;;;;;5031409;28;20551;-85
2023/04/13 04:52:11;;;;;;;3.83;1.40;;;8.90;96.60;;;;;;5030793;28;20103;-86
2023/04/13 04:54:38;;;;;;;4.80;1.33;;;8.90;96.10;;;;;;5032490;28;20486;-84
2023/04/13 04:57:04;;;;;;;3.03;1.20;;;8.90;97.40;;;;;;5035355;28;20116;-86
2023/04/13 04:59:29;;;;;;;;;;;9.00;99.90;;;;;;5035151;28;20220;-85
2023/04/13 05:01:55;;;;;;;5.43;1.50;;;9.10;98.50;;;;;;5033222;28;19908;-83
2023/04/13 05:04:21;;;;;;;;;;;9.00;98.10;;;;;;5034043;28;20116;-84
2023/04/13 05:06:47;;;;;;;4.43;1.55;;;9.00;99.90;;;;;;5034664;28;20014;-84
2023/04/13 05:09:13;;;;;;;;;;;9.00;99.90;;;;;;5035270;28;20033;-86
2023/04/13 05:11:40;;;;;;;14.00;4.25;;;9.00;99.90;;;;;;5036319;28;19905;-84
2023/04/13 05:14:06;;;;;;;14.38;3.97;;;9.10;99.90;;;;;;5033454;28;20654;-83
2023/04/13 05:16:32;;;;;;;;;;;9.10;99.90;;;;;;5034027;28;20022;-83
2023/04/13 05:18:59;;;;;;;22.05;9.45;;;9.20;99.90;;;;;;5033462;28;20378;-85
2023/04/13 05:21:25;;;;;;;;;;;9.20;99.90;;;;;;5035783;28;20057;-83
2023/04/13 05:23:51;;;;;;;22.15;10.77;;;9.20;99.90;;;;;;5033571;28;20376;-82
2023/04/13 05:26:17;;;;;;;;;;;9.30;99.90;;;;;;5032717;28;20509;-82
2023/04/13 05:28:42;;;;;;;38.17;19.20;;;9.40;99.90;;;;;;5031878;28;19916;-83
2023/04/13 05:31:09;;;;;;;;;;;9.50;99.90;;;;;;5032628;28;20060;-82
2023/04/13 05:33:36;;;;;;;56.15;25.98;;;9.60;99.90;;;;;;5032925;28;19956;-83
2023/04/13 05:36:03;;;;;;;45.60;22.67;;;9.70;99.90;;;;;;5033387;28;20083;-85
2023/04/13 05:38:29;;;;;;;34.20;16.02;;;9.80;99.90;;;;;;5032655;28;20021;-82
2023/04/13 05:40:54;;;;;;;;;;;9.90;99.90;;;;;;5032626;28;20386;-85
2023/04/13 05:43:20;;;;;;;21.33;8.68;;;10.00;99.90;;;;;;5032986;28;19905;-84
2023/04/13 05:45:46;;;;;;;;;;;10.10;99.90;;;;;;5032724;28;20431;-84
2023/04/13 05:48:12;;;;;;;19.02;8.23;;;10.20;99.90;;;;;;5032120;28;19905;-84
2023/04/13 05:50:38;;;;;;;;;;;10.30;99.90;;;;;;5033137;28;20124;-84
2023/04/13 05:53:06;;;;;;;17.98;5.97;;;10.40;99.90;;;;;;5032243;28;20011;-85
2023/04/13 05:55:32;;;;;;;15.77;5.75;;;10.40;99.90;;;;;;5033167;28;20033;-85
2023/04/13 05:57:58;;;;;;;;;;;10.50;99.90;;;;;;5032971;28;20036;-85
2023/04/13 06:00:24;;;;;;;12.20;4.82;;;10.50;99.90;;;;;;5030268;28;19909;-84
2023/04/13 06:02:50;;;;;;;15.95;5.60;;;10.60;99.90;;;;;;5032622;28;20443;-85
2023/04/13 06:05:19;;;;;;;;;;;10.70;99.90;;;;;;5032582;28;20036;-84
2023/04/13 06:07:45;;;;;;;13.57;6.00;;;10.70;99.90;;;;;;5033197;28;19952;-84
2023/04/13 06:10:11;;;;;;;;;;;10.90;99.90;;;;;;5033188;28;20056;-84
2023/04/13 06:12:37;;;;;;;21.15;10.15;;;11.00;99.90;;;;;;5031421;28;19925;-84
2023/04/13 06:15:03;;;;;;;;;;;11.20;99.90;;;;;;5033170;28;20040;-85
2023/04/13 06:17:29;;;;;;;43.83;23.67;;;11.30;99.90;;;;;;5033277;28;19905;-84
2023/04/13 06:19:55;;;;;;;146.77;77.35;;;11.40;99.90;;;;;;5033160;28;20528;-85
2023/04/13 06:22:21;;;;;;;;;;;11.40;99.90;;;;;;5033061;28;20018;-85
2023/04/13 06:24:48;;;;;;;18.10;10.43;;;11.50;99.90;;;;;;5033621;28;20024;-84
2023/04/13 06:27:14;;;;;;;15.63;8.20;;;11.50;99.90;;;;;;5033171;28;20390;-84
2023/04/13 06:29:40;;;;;;;11.32;6.13;;;11.50;99.20;;;;;;5033601;28;20367;-84
2023/04/13 06:32:06;;;;;;;12.05;6.28;;;11.30;99.00;;;;;;5033881;28;20032;-84
2023/04/13 06:34:33;;;;;;;18.55;7.78;;;11.10;99.90;;;;;;5033024;28;20572;-84
2023/04/13 06:36:59;;;;;;;13.98;7.53;;;11.00;99.90;;;;;;5030857;28;20030;-83
2023/04/13 06:39:26;;;;;;;8.60;6.20;;;10.90;99.90;;;;;;5032227;28;20025;-86
2023/04/13 06:41:52;;;;;;;13.85;7.97;;;11.00;99.90;;;;;;5032242;28;20036;-84
2023/04/13 06:44:17;;;;;;;;;;;11.10;99.90;;;;;;5032876;28;20037;-84
2023/04/13 06:46:43;;;;;;;11.50;7.35;;;11.20;99.90;;;;;;5031706;28;19908;-85
2023/04/13 06:49:09;;;;;;;;;;;11.30;99.90;;;;;;5033814;28;20032;-85
2023/04/13 06:51:35;;;;;;;10.25;6.32;;;11.30;99.90;;;;;;5031895;28;20393;-85
2023/04/13 06:54:01;;;;;;;;;;;11.40;99.90;;;;;;5032106;28;20034;-84
2023/04/13 06:56:26;;;;;;;12.35;7.40;;;11.60;99.90;;;;;;5032194;28;20277;-85
2023/04/13 06:58:52;;;;;;;;;;;11.90;99.90;;;;;;5032515;28;20379;-84
2023/04/13 07:01:17;;;;;;;11.57;6.88;;;12.30;96.00;;;;;;5031643;28;20515;-82
2023/04/13 07:03:43;;;;;;;;;;;12.70;94.70;;;;;;5032339;28;20088;-83
2023/04/13 07:06:09;;;;;;;9.13;5.20;;;13.20;91.90;;;;;;5032444;28;19905;-83
2023/04/13 07:08:35;;;;;;;13.35;5.97;;;13.40;88.80;;;;;;5031785;28;20413;-83
2023/04/13 07:11:01;;;;;;;;;;;13.70;81.30;;;;;;5032593;28;20029;-84
2023/04/13 07:13:27;;;;;;;11.67;4.90;;;13.80;75.30;;;;;;5031045;28;19917;-83
2023/04/13 07:15:53;;;;;;;;;;;13.60;74.80;;;;;;5031105;28;20040;-83
2023/04/13 07:18:18;;;;;;;6.78;3.60;;;13.50;75.80;;;;;;5030880;28;19920;-85
2023/04/13 07:20:44;;;;;;;;;;;13.50;71.50;;;;;;5032427;28;20026;-83
2023/04/13 07:23:10;;;;;;;9.27;3.47;;;13.40;70.20;;;;;;5031623;28;20003;-85
2023/04/13 07:25:36;;;;;;;;;;;13.60;69.90;;;;;;5033126;28;20109;-84
2023/04/13 07:28:01;;;;;;;9.95;5.93;;;13.90;68.00;;;;;;5029053;28;19916;-84
2023/04/13 07:30:27;;;;;;;9.65;4.25;;;14.20;66.80;;;;;;5031957;28;20096;-85
2023/04/13 07:32:53;;;;;;;10.95;4.93;;;14.90;62.30;;;;;;5030180;28;20199;-84
2023/04/13 07:35:18;;;;;;;7.85;4.05;;;15.40;59.40;;;;;;5030988;28;20072;-85
2023/04/13 07:37:45;;;;;;;7.30;3.30;;;15.90;59.40;;;;;;5032078;28;20478;-83
2023/04/13 07:40:12;;;;;;;8.32;3.22;;;16.70;57.00;;;;;;5031817;28;20029;-80
2023/04/13 07:42:38;;;;;;;11.73;3.60;;;17.20;53.90;;;;;;5031321;28;20402;-85
2023/04/13 07:45:05;;;;;;;6.57;2.55;;;17.60;54.10;;;;;;5030881;28;20037;-86
2023/04/13 07:47:32;;;;;;;7.88;2.70;;;18.00;51.50;;;;;;5031114;28;20028;-84
2023/04/13 07:49:58;;;;;;;5.70;2.47;;;18.40;50.20;;;;;;5031278;28;20115;-84
2023/04/13 07:52:23;;;;;;;5.07;2.72;;;18.50;47.20;;;;;;5031296;28;20052;-85
2023/04/13 07:54:50;;;;;;;7.60;3.08;;;18.40;47.00;;;;;;5031063;28;20029;-84
2023/04/13 07:57:20;;;;;;;10.35;3.78;;;17.90;47.90;;;;;;5030758;28;20509;-85
2023/04/13 07:59:46;;;;;;;5.88;2.92;;;17.60;48.80;;;;;;5030747;28;20500;-84
2023/04/13 08:02:12;;;;;;;6.80;3.05;;;17.30;50.20;;;;;;5030568;28;20025;-83
2023/04/13 08:04:38;;;;;;;7.28;2.80;;;17.20;50.90;;;;;;5030507;28;20109;-84
2023/04/13 08:07:04;;;;;;;5.25;2.55;;;17.30;50.60;;;;;;5030177;28;20127;-84
2023/04/13 08:09:40;;;;;;;14.07;3.05;;;17.50;50.00;;;;;;5030151;28;20045;-84
2023/04/13 08:12:07;;;;;;;14.52;2.97;;;17.60;47.90;;;;;;5030954;28;20033;-84
2023/04/13 08:14:33;;;;;;;9.35;3.05;;;17.70;47.20;;;;;;5030879;28;20060;-85
2023/04/13 08:17:00;;;;;;;5.63;2.58;;;18.00;47.10;;;;;;5030598;28;20031;-85
2023/04/13 08:19:26;;;;;;;5.80;2.80;;;18.40;45.40;;;;;;5031381;28;20025;-85
2023/04/13 08:21:52;;;;;;;9.55;2.53;;;18.50;43.10;;;;;;5029300;28;20454;-83
2023/04/13 08:24:21;;;;;;;9.18;3.22;;;18.70;41.90;;;;;;5030095;28;20060;-81
2023/04/13 08:26:47;;;;;;;7.80;2.75;;;18.80;42.70;;;;;;5029686;28;20021;-82
2023/04/13 08:29:13;;;;;;;4.85;2.13;;;18.90;40.70;;;;;;5030775;28;20116;-83
2023/04/13 08:31:39;;;;;;;7.47;2.35;;;19.00;40.60;;;;;;5030161;28;20506;-85
2023/04/13 08:34:09;;;;;;;9.05;2.70;;;19.50;41.70;;;;;;5030596;28;20033;-83
2023/04/13 08:36:36;;;;;;;6.18;2.63;;;19.80;39.50;;;;;;5031139;28;20040;-83
2023/04/13 08:39:01;;;;;;;4.55;2.28;;;20.10;38.20;;;;;;5029173;28;20025;-83
2023/04/13 08:41:31;;;;;;;8.73;2.45;;;20.00;39.40;;;;;;5031599;28;20376;-83
2023/04/13 08:44:01;;;;;;;5.35;2.83;;;20.00;38.10;;;;;;5031341;28;20117;-83
2023/04/13 08:46:27;;;;;;;4.68;2.28;;;19.20;39.00;;;;;;5030633;28;20542;-83
2023/04/13 08:48:55;;;;;;;12.40;4.72;;;18.80;41.10;;;;;;5032029;28;20084;-83
2023/04/13 08:51:21;;;;;;;6.72;3.10;;;18.70;41.90;;;;;;5031074;28;20022;-83
2023/04/13 08:53:47;;;;;;;5.68;2.30;;;18.50;42.70;;;;;;5030589;28;20037;-82
2023/04/13 08:56:14;;;;;;;5.22;2.70;;;18.40;44.00;;;;;;5030497;28;20048;-83
2023/04/13 08:58:42;;;;;;;7.70;2.30;;;18.30;44.10;;;;;;5030666;28;20033;-83
2023/04/13 09:01:12;;;;;;;10.40;2.63;;;18.10;43.50;;;;;;5030181;28;20024;-82
2023/04/13 09:03:52;;;;;;;5.18;2.80;;;18.00;44.60;;;;;;5030522;28;20072;-83
2023/04/13 09:06:24;;;;;;;8.93;3.88;;;18.00;46.20;;;;;;5030657;28;20036;-82
2023/04/13 09:08:54;;;;;;;6.85;3.42;;;17.80;44.10;;;;;;5030698;28;20033;-82
2023/04/13 09:11:20;;;;;;;9.38;4.65;;;17.60;45.90;;;;;;5033171;28;20026;-83
2023/04/13 09:13:52;;;;;;;6.55;2.80;;;17.50;46.50;;;;;;5030380;28;20838;-83
2023/04/13 09:16:18;;;;;;;6.95;2.92;;;17.40;46.20;;;;;;5030533;28;20025;-83
2023/04/13 09:19:03;;;;;;;4.13;2.00;;;17.30;46.80;;;;;;5030980;28;20507;-83
2023/04/13 09:21:39;;;;;;;8.07;2.65;;;17.30;44.60;;;;;;5028319;28;20029;-83
2023/04/13 09:24:05;;;;;;;;;;;17.30;46.60;;;;;;5030345;28;20087;-83
2023/04/13 09:26:41;;;;;;;6.50;2.87;;;17.30;44.80;;;;;;5030495;28;19958;-83
2023/04/13 09:29:10;;;;;;;3.97;2.20;;;17.20;46.20;;;;;;5030717;28;20259;-82
2023/04/13 09:31:39;;;;;;;6.53;2.75;;;17.10;46.90;;;;;;5030406;28;20064;-83
2023/04/13 09:34:08;;;;;;;5.70;2.10;;;17.10;46.80;;;;;;5030395;28;20033;-82
2023/04/13 09:36:34;;;;;;;5.88;2.60;;;16.90;44.60;;;;;;5029271;28;20496;-82
2023/04/13 09:39:00;;;;;;;5.72;2.38;;;17.00;46.30;;;;;;5030552;28;20029;-83
2023/04/13 09:41:34;;;;;;;3.22;1.85;;;17.00;44.90;;;;;;5032807;28;20030;-83
2023/04/13 09:44:02;;;;;;;7.07;2.50;;;17.10;46.50;;;;;;5034007;28;20057;-83
2023/04/13 09:46:28;;;;;;;8.70;2.70;;;17.30;45.50;;;;;;5034078;28;20056;-82
2023/04/13 09:49:01;;;;;;;7.32;2.35;;;17.40;45.60;;;;;;5034902;28;20489;-82
2023/04/13 09:51:38;;;;;;;10.68;1.67;;;17.20;43.90;;;;;;5033860;28;20028;-83
2023/04/13 09:54:05;;;;;;;4.18;1.95;;;17.00;44.30;;;;;;5033704;28;20087;-83
2023/04/13 09:56:55;;;;;;;6.05;2.40;;;17.00;45.50;;;;;;5032759;28;20513;-83
2023/04/13 09:59:24;;;;;;;8.70;2.33;;;17.10;45.50;;;;;;5034161;28;20080;-83
2023/04/13 10:01:51;;;;;;;4.63;1.88;;;16.80;47.10;;;;;;5032657;28;20025;-85
2023/04/13 10:04:16;;;;;;;4.88;2.63;;;16.70;45.90;;;;;;5032104;28;20037;-85
2023/04/13 10:06:43;;;;;;;10.00;2.50;;;16.70;46.80;;;;;;5031609;28;20508;-85
2023/04/13 10:09:09;;;;;;;6.95;2.65;;;16.80;48.20;;;;;;5032965;28;20468;-84
2023/04/13 10:11:49;;;;;;;6.13;2.67;;;17.00;49.60;;;;;;5033506;28;20053;-86
2023/04/13 10:14:26;;;;;;;6.75;2.00;;;17.20;48.10;;;;;;5034585;28;20049;-85
2023/04/13 10:17:13;;;;;;;7.07;2.65;;;17.10;45.80;;;;;;5033823;28;20025;-85
2023/04/13 10:19:48;;;;;;;5.93;2.10;;;17.30;45.60;;;;;;5033712;28;20394;-83
2023/04/13 10:22:15;;;;;;;3.33;2.05;;;17.90;45.30;;;;;;5033395;28;20047;-83
2023/04/13 10:24:42;;;;;;;6.45;2.17;;;18.10;44.20;;;;;;5033379;28;20438;-84
2023/04/13 10:27:14;;;;;;;7.10;2.20;;;18.50;43.70;;;;;;5033286;28;20137;-83
2023/04/13 10:29:39;;;;;;;4.13;2.22;;;18.60;43.80;;;;;;5033267;28;20026;-84
2023/04/13 10:32:05;;;;;;;7.22;2.25;;;18.60;43.80;;;;;;5032890;28;20028;-83
2023/04/13 10:34:37;;;;;;;4.05;1.88;;;18.60;44.60;;;;;;5033313;28;20034;-83
2023/04/13 10:37:05;;;;;;;7.72;2.03;;;18.70;43.60;;;;;;5033077;28;20021;-83
2023/04/13 10:39:32;;;;;;;4.47;2.42;;;18.60;44.00;;;;;;5031111;28;20568;-83
2023/04/13 10:42:09;;;;;;;3.75;2.40;;;18.70;46.20;;;;;;5032819;28;20022;-83
2023/04/13 10:44:41;;;;;;;6.72;2.55;;;19.00;46.80;;;;;;5033081;28;20080;-82
2023/04/13 10:47:07;;;;;;;2.88;1.95;;;18.90;45.90;;;;;;5034330;28;20421;-83
2023/04/13 10:49:33;;;;;;;8.43;2.42;;;18.60;46.40;;;;;;5032889;28;20473;-83
2023/04/13 10:51:59;;;;;;;5.18;2.47;;;18.60;47.70;;;;;;5030258;28;20025;-84
2023/04/13 10:54:26;;;;;;;4.68;2.40;;;18.80;47.90;;;;;;5032594;28;20528;-83
2023/04/13 10:57:00;;;;;;;6.55;2.40;;;19.00;47.90;;;;;;5032869;28;20381;-83
2023/04/13 10:59:41;;;;;;;5.13;2.10;;;19.00;46.40;;;;;;5033092;28;20013;-83
2023/04/13 11:02:15;;;;;;;5.18;2.42;;;18.80;43.60;;;;;;5032704;28;20436;-83
2023/04/13 11:04:46;;;;;;;6.65;2.78;;;18.60;44.20;;;;;;5032662;28;20029;-82
2023/04/13 11:07:22;;;;;;;4.70;2.30;;;18.60;45.60;;;;;;5032482;28;20079;-83
2023/04/13 11:09:49;;;;;;;;;;;18.60;46.60;;;;;;5032964;28;20112;-83
2023/04/13 11:12:16;;;;;;;4.45;1.70;;;18.70;46.90;;;;;;5032720;28;19916;-83
2023/04/13 11:14:49;;;;;;;9.23;2.80;;;19.00;47.70;;;;;;5030232;28;20049;-83
2023/04/13 11:17:18;;;;;;;4.43;2.45;;;19.20;46.90;;;;;;5031037;28;20057;-81
2023/04/13 11:19:50;;;;;;;5.03;2.47;;;19.20;46.60;;;;;;5030611;28;20030;-83
2023/04/13 11:22:17;;;;;;;8.30;2.47;;;19.20;46.00;;;;;;5031210;28;20021;-83
2023/04/13 11:24:47;;;;;;;9.38;2.40;;;19.00;45.70;;;;;;5031877;28;20072;-83
2023/04/13 11:27:22;;;;;;;6.32;2.30;;;18.60;46.70;;;;;;5031219;28;20061;-83
2023/04/13 11:30:05;;;;;;;3.50;2.08;;;18.50;48.20;;;;;;5031123;28;20079;-82
2023/04/13 11:32:41;;;;;;;8.68;2.08;;;18.50;48.10;;;;;;5014706;28;20033;-84
2023/04/13 11:35:16;;;;;;;4.45;1.88;;;18.70;47.40;;;;;;5031378;28;20040;-82
2023/04/13 11:37:48;;;;;;;5.78;2.08;;;18.50;48.10;;;;;;5030665;28;20033;-83
2023/04/13 11:40:20;;;;;;;4.88;2.42;;;18.50;48.70;;;;;;5029982;28;20037;-81
2023/04/13 11:43:07;;;;;;;6.13;1.58;;;18.70;48.10;;;;;;5030094;28;20664;-84
2023/04/13 11:45:33;;;;;;;4.43;1.83;;;18.80;47.00;;;;;;5031419;28;20053;-83
2023/04/13 11:47:58;;;;;;;6.63;2.38;;;18.90;47.30;;;;;;5030997;28;20102;-82
2023/04/13 11:50:24;;;;;;;3.88;1.65;;;18.90;45.80;;;;;;5032484;28;20021;-83
2023/04/13 11:52:55;;;;;;;5.82;1.85;;;18.80;46.70;;;;;;5028689;28;20036;-83
2023/04/13 11:55:21;;;;;;;8.38;2.03;;;18.80;47.20;;;;;;5029947;28;20040;-83
2023/04/13 11:57:48;;;;;;;10.75;3.03;;;19.00;48.70;;;;;;5029130;28;20057;-82
2023/04/13 12:00:22;;;;;;;6.22;2.35;;;18.80;47.30;;;;;;5030214;28;20063;-83
2023/04/13 12:02:53;;;;;;;3.90;1.80;;;18.80;47.80;;;;;;5030741;28;20018;-83
2023/04/13 12:05:30;;;;;;;8.05;2.15;;;18.60;49.10;;;;;;5029863;28;20048;-82
2023/04/13 12:07:57;;;;;;;5.13;2.20;;;18.80;49.00;;;;;;5029710;28;20104;-82
2023/04/13 12:10:28;;;;;;;9.50;2.00;;;18.80;49.70;;;;;;5029599;28;20460;-83
2023/04/13 12:13:00;;;;;;;5.30;2.42;;;18.50;50.20;;;;;;5029180;28;20050;-82
2023/04/13 12:15:28;;;;;;;7.75;2.53;;;18.40;48.90;;;;;;5029603;28;20060;-83
2023/04/13 12:17:55;;;;;;;8.20;2.65;;;18.10;50.80;;;;;;5028342;28;20037;-83
2023/04/13 12:20:21;;;;;;;9.18;3.30;;;18.00;50.30;;;;;;5028251;28;20021;-82
2023/04/13 12:22:47;;;;;;;5.35;2.65;;;17.80;51.00;;;;;;5031364;28;20509;-84
2023/04/13 12:25:21;;;;;;;8.25;2.50;;;17.90;51.50;;;;;;5030730;28;20033;-83
2023/04/13 12:27:51;;;;;;;5.32;1.92;;;17.70;50.70;;;;;;5028907;28;20047;-83
2023/04/13 12:30:19;;;;;;;7.07;2.13;;;17.80;52.00;;;;;;5028688;28;20124;-83
2023/04/13 12:32:51;;;;;;;3.05;1.88;;;18.00;51.40;;;;;;5030575;28;20032;-83
2023/04/13 12:35:18;;;;;;;4.95;2.47;;;17.90;51.60;;;;;;5031376;28;20048;-84
2023/04/13 12:37:45;;;;;;;9.18;2.13;;;18.20;50.30;;;;;;5030864;28;20037;-83
2023/04/13 12:40:13;;;;;;;6.43;2.08;;;18.40;50.60;;;;;;5030609;28;20025;-83
2023/04/13 12:42:39;;;;;;;5.13;1.55;;;18.40;49.00;;;;;;5030955;28;20029;-84
2023/04/13 12:45:06;;;;;;;6.22;1.92;;;18.30;50.00;;;;;;5031456;28;20032;-84
2023/04/13 12:47:32;;;;;;;3.28;1.40;;;18.10;49.20;;;;;;5030304;28;20532;-84
2023/04/13 12:49:57;;;;;;;3.72;1.55;;;18.10;50.40;;;;;;5030620;28;20021;-84
2023/04/13 12:52:23;;;;;;;3.35;1.50;;;18.20;50.00;;;;;;5031736;28;20040;-84
2023/04/13 12:54:50;;;;;;;7.43;2.30;;;18.20;50.20;;;;;;5030874;28;20120;-83
2023/04/13 12:57:16;;;;;;;7.75;2.58;;;18.20;50.40;;;;;;5030415;28;20026;-84
2023/04/13 12:59:45;;;;;;;4.80;1.20;;;18.30;49.60;;;;;;5030476;28;20025;-84
2023/04/13 13:02:10;;;;;;;5.00;1.58;;;18.40;48.80;;;;;;5030962;28;20080;-84
2023/04/13 13:04:36;;;;;;;3.97;1.10;;;18.30;48.20;;;;;;5031247;28;20504;-84